Time;durP1;ratioP1;P1;durP2;ratioP2;P2;SDS_P1;SDS_P2;PMS_P1;PMS_P2;Temp;Humidity;BMP_temperature;BMP_pressure;BME280_temperature;BME280_humidity;BME280_pressure;Samples;Min_cycle;Max_cycle;Signal;HPM_P1;HPM_P2
2023/04/09 00:01:42;;;;;;;14.93;10.60;;;8.90;91.60;;;;;;21161541;28;20212;-71
2023/04/09 00:11:44;;;;;;;20.67;12.20;;;8.80;91.80;;;;;;21141818;28;20243;-66
2023/04/09 00:21:47;;;;;;;19.67;11.73;;;;;;;;;;21168201;28;20199;-66
2023/04/09 00:31:49;;;;;;;18.43;11.53;;;8.80;92.40;;;;;;21175893;28;20316;-71
2023/04/09 00:42:01;;;;;;;17.43;11.67;;;8.80;92.70;;;;;;21174618;28;20213;-73
2023/04/09 00:52:03;;;;;;;19.37;11.60;;;8.90;92.80;;;;;;21173322;28;20243;-73
2023/04/09 01:02:05;;;;;;;16.40;10.70;;;8.80;92.90;;;;;;21173258;28;20671;-68
2023/04/09 01:12:31;;;;;;;15.17;10.77;;;8.80;93.20;;;;;;21171684;28;20252;-67
2023/04/09 01:23:20;;;;;;;17.47;11.57;;;8.80;93.30;;;;;;21170757;28;20244;-68
2023/04/09 01:33:24;;;;;;;18.43;11.43;;;8.80;93.50;;;;;;21114570;28;20242;-67
2023/04/09 01:43:27;;;;;;;20.30;11.80;;;8.80;93.60;;;;;;21169707;28;20216;-68
2023/04/09 01:53:31;;;;;;;17.67;12.20;;;8.70;93.80;;;;;;21168541;28;20234;-68
2023/04/09 02:03:38;;;;;;;19.40;11.60;;;8.80;93.90;;;;;;21149697;28;20232;-67
2023/04/09 02:13:41;;;;;;;20.90;11.47;;;8.80;94.10;;;;;;21167126;28;20270;-67
2023/04/09 02:23:42;;;;;;;17.20;11.70;;;8.90;94.10;;;;;;21166352;28;20681;-66
2023/04/09 02:33:44;;;;;;;19.90;13.10;;;8.80;94.30;;;;;;21165585;28;20616;-66
2023/04/09 02:43:46;;;;;;;17.87;12.10;;;8.80;94.40;;;;;;21164668;28;20204;-67
2023/04/09 02:53:47;;;;;;;17.97;12.13;;;8.80;94.60;;;;;;21163963;28;20229;-71
2023/04/09 03:03:49;;;;;;;19.00;12.00;;;8.80;94.70;;;;;;21163545;28;20722;-67
2023/04/09 03:13:51;;;;;;;20.30;12.33;;;8.80;94.70;;;;;;21163071;28;20250;-67
2023/04/09 03:23:53;;;;;;;21.00;13.53;;;8.70;94.80;;;;;;21162644;28;20678;-67
2023/04/09 03:33:55;;;;;;;20.97;13.00;;;8.70;94.90;;;;;;21162294;28;20562;-72
2023/04/09 03:43:56;;;;;;;21.00;13.23;;;8.70;94.90;;;;;;21162333;28;20265;-72
2023/04/09 03:53:58;;;;;;;22.83;14.07;;;8.70;94.90;;;;;;21165079;28;20281;-69
2023/04/09 04:04:00;;;;;;;21.53;13.93;;;8.70;95.00;;;;;;21177426;28;20201;-67
2023/04/09 04:14:01;;;;;;;25.13;14.03;;;8.70;95.10;;;;;;21177260;28;20241;-67
2023/04/09 04:24:03;;;;;;;21.17;13.63;;;8.70;95.10;;;;;;21176195;28;20552;-67
2023/04/09 04:34:05;;;;;;;24.50;14.60;;;8.70;95.30;;;;;;21175430;28;20621;-66
2023/04/09 04:44:07;;;;;;;22.73;14.40;;;8.70;95.50;;;;;;21156660;28;20202;-67
2023/04/09 04:54:08;;;;;;;22.13;14.63;;;8.70;95.50;;;;;;21173597;28;20249;-67
2023/04/09 05:04:10;;;;;;;23.63;14.97;;;8.70;95.60;;;;;;21172317;28;20202;-67
2023/04/09 05:14:12;;;;;;;20.37;13.90;;;8.70;95.70;;;;;;21172117;28;20295;-72
2023/04/09 05:24:13;;;;;;;25.03;14.70;;;9.00;95.60;;;;;;21171149;28;20197;-67
2023/04/09 05:34:15;;;;;;;21.60;13.87;;;9.10;95.70;;;;;;21170349;28;20276;-67
2023/04/09 05:44:17;;;;;;;24.03;13.93;;;9.60;95.70;;;;;;21169903;28;20680;-72
2023/04/09 05:54:19;;;;;;;22.30;13.87;;;9.80;95.50;;;;;;21168536;28;20231;-67
2023/04/09 06:04:20;;;;;;;25.57;16.37;;;10.00;94.70;;;;;;21167882;28;20657;-66
2023/04/09 06:14:22;;;;;;;25.63;16.10;;;10.00;94.30;;;;;;21167066;28;20242;-67
2023/04/09 06:24:24;;;;;;;24.83;15.37;;;9.90;94.40;;;;;;21165879;28;20211;-67
2023/04/09 06:34:26;;;;;;;23.57;16.03;;;9.90;94.10;;;;;;21165511;28;20233;-67
2023/04/09 06:44:27;;;;;;;24.30;15.97;;;9.80;93.70;;;;;;21165366;28;20205;-72
2023/04/09 06:54:29;;;;;;;24.73;16.17;;;9.80;93.40;;;;;;21163617;28;20238;-68
2023/04/09 07:04:30;;;;;;;22.07;15.67;;;10.00;92.70;;;;;;21163789;28;20206;-68
2023/04/09 07:14:33;;;;;;;21.13;14.60;;;10.40;92.30;;;;;;21163126;28;20691;-71
2023/04/09 07:24:35;;;;;;;22.10;15.80;;;10.60;92.00;;;;;;21162866;28;20211;-67
2023/04/09 07:34:36;;;;;;;21.37;15.43;;;10.80;91.70;;;;;;21177625;28;20235;-67
2023/04/09 07:44:38;;;;;;;20.33;14.57;;;11.00;91.30;;;;;;21161787;28;20619;-67
2023/04/09 07:54:40;;;;;;;20.43;14.97;;;11.20;90.90;;;;;;21178685;28;20227;-68
2023/04/09 08:04:41;;;;;;;20.10;14.17;;;11.30;90.50;;;;;;21177970;28;20217;-68
2023/04/09 08:14:43;;;;;;;19.43;13.87;;;11.50;90.10;;;;;;21176955;28;20641;-72
2023/04/09 08:24:50;;;;;;;21.07;14.37;;;11.50;89.10;;;;;;21176071;28;20245;-72
2023/04/09 08:34:52;;;;;;;19.43;14.17;;;11.60;88.70;;;;;;21175127;28;20237;-72
2023/04/09 08:44:54;;;;;;;18.40;13.53;;;11.80;86.80;;;;;;21173807;28;20213;-70
2023/04/09 08:54:55;;;;;;;19.43;14.00;;;11.90;86.20;;;;;;21173306;28;20230;-72
2023/04/09 09:05:00;;;;;;;17.50;13.03;;;12.30;85.00;;;;;;21172324;28;20290;-71
2023/04/09 09:15:03;;;;;;;18.87;13.63;;;12.40;83.60;;;;;;21171913;28;20245;-73
2023/04/09 09:25:12;;;;;;;16.47;12.97;;;12.70;81.80;;;;;;21170986;28;20214;-71
2023/04/09 09:35:13;;;;;;;14.07;11.37;;;13.00;80.00;;;;;;21169923;28;20230;-69
2023/04/09 09:45:18;;;;;;;15.07;11.90;;;13.10;78.00;;;;;;21169489;28;20244;-66
2023/04/09 09:55:22;;;;;;;14.40;11.47;;;13.20;78.00;;;;;;21167405;28;20689;-67
2023/04/09 10:05:26;;;;;;;12.97;10.43;;;13.60;75.10;;;;;;21167918;28;20657;-71
2023/04/09 10:15:28;;;;;;;13.73;10.00;;;13.60;69.40;;;;;;21167092;28;20639;-68
2023/04/09 10:25:31;;;;;;;15.10;8.33;;;13.90;67.50;;;;;;21166312;28;20212;-68
2023/04/09 10:35:32;;;;;;;9.27;7.90;;;13.80;65.10;;;;;;21165657;28;20275;-72
2023/04/09 10:45:41;;;;;;;10.07;8.57;;;13.80;64.50;;;;;;21165232;28;20210;-68
2023/04/09 10:55:49;;;;;;;10.23;8.50;;;14.10;62.40;;;;;;21164216;28;20229;-68
2023/04/09 11:05:57;;;;;;;10.60;8.30;;;14.20;61.80;;;;;;21163346;28;20208;-72
2023/04/09 11:16:02;;;;;;;9.63;7.53;;;14.50;60.40;;;;;;21162970;28;20241;-72
2023/04/09 11:26:05;;;;;;;7.90;6.77;;;14.50;60.90;;;;;;21163272;28;20198;-68
2023/04/09 11:36:07;;;;;;;7.40;5.80;;;14.60;60.00;;;;;;21161945;28;20450;-65
2023/04/09 11:46:09;;;;;;;6.97;6.10;;;14.70;58.80;;;;;;21161997;28;20678;-71
2023/04/09 11:56:11;;;;;;;6.93;5.77;;;15.30;53.20;;;;;;21162116;28;20239;-67
2023/04/09 12:06:12;;;;;;;7.00;5.40;;;15.60;52.80;;;;;;21161337;28;20212;-68
2023/04/09 12:16:20;;;;;;;5.80;5.17;;;15.70;53.30;;;;;;21165799;28;20243;-68
2023/04/09 12:26:21;;;;;;;7.67;6.37;;;16.50;50.60;;;;;;21176325;28;20219;-72
2023/04/09 12:36:23;;;;;;;7.77;5.97;;;16.40;49.90;;;;;;21174981;28;20294;-67
2023/04/09 12:46:26;;;;;;;8.70;6.73;;;16.50;49.30;;;;;;21174162;28;20222;-68
2023/04/09 12:56:28;;;;;;;6.00;5.20;;;;;;;;;;21173835;28;20324;-70
2023/04/09 13:06:30;;;;;;;6.53;5.80;;;17.30;48.70;;;;;;21172737;28;20200;-72
2023/04/09 13:16:32;;;;;;;6.67;5.50;;;18.10;46.60;;;;;;21171501;28;20241;-71
2023/04/09 13:26:34;;;;;;;7.67;6.20;;;18.30;45.70;;;;;;21171493;28;20227;-72
2023/04/09 13:36:36;;;;;;;8.03;6.77;;;18.40;45.30;;;;;;21170315;28;20290;-73
2023/04/09 13:46:38;;;;;;;7.63;6.30;;;18.70;44.60;;;;;;21169673;28;20236;-71
2023/04/09 13:56:40;;;;;;;7.73;6.60;;;;;;;;;;21169047;28;20597;-72
2023/04/09 14:06:43;;;;;;;6.60;5.70;;;;;;;;;;21167925;28;20263;-73
2023/04/09 14:16:45;;;;;;;7.23;6.33;;;18.90;45.00;;;;;;21166967;28;20333;-69
2023/04/09 14:26:48;;;;;;;6.97;6.27;;;19.20;42.20;;;;;;21166771;28;20213;-67
2023/04/09 14:36:50;;;;;;;9.07;6.30;;;19.00;42.40;;;;;;21164988;28;20244;-72
2023/04/09 14:46:53;;;;;;;6.37;5.77;;;;;;;;;;21165084;28;20202;-73
2023/04/09 14:56:57;;;;;;;5.18;4.68;;;;;;;;;;21164423;28;20239;-73
2023/04/09 15:06:59;;;;;;;5.65;5.15;;;;;;;;;;21163760;28;20311;-72
2023/04/09 15:17:01;;;;;;;6.40;5.70;;;21.30;36.00;;;;;;21162993;28;20242;-70
2023/04/09 15:27:03;;;;;;;5.93;5.32;;;;;;;;;;21163432;28;20206;-68
2023/04/09 15:37:05;;;;;;;6.20;5.60;;;20.70;36.30;;;;;;21163190;28;20732;-68
2023/04/09 15:47:07;;;;;;;5.90;5.30;;;21.50;35.50;;;;;;21163946;28;20204;-72
2023/04/09 15:57:08;;;;;;;6.10;5.50;;;20.40;36.10;;;;;;21178795;28;20337;-72
2023/04/09 16:07:14;;;;;;;6.57;5.60;;;19.00;37.10;;;;;;21177690;28;20206;-72
2023/04/09 16:17:16;;;;;;;6.27;5.67;;;18.20;38.10;;;;;;21176481;28;20241;-68
2023/04/09 16:27:18;;;;;;;6.27;5.47;;;18.90;38.70;;;;;;21176310;28;20215;-72
2023/04/09 16:37:20;;;;;;;6.83;6.10;;;20.50;38.30;;;;;;21175482;28;20237;-72
2023/04/09 16:47:21;;;;;;;6.03;5.43;;;20.90;36.90;;;;;;21174411;28;20259;-71
2023/04/09 16:57:24;;;;;;;7.67;6.13;;;19.10;38.20;;;;;;21174112;28;20716;-72
2023/04/09 17:07:27;;;;;;;6.90;6.10;;;18.10;39.10;;;;;;21172029;28;20209;-68
2023/04/09 17:17:29;;;;;;;6.83;5.70;;;18.00;39.60;;;;;;21171804;28;20249;-70
2023/04/09 17:27:30;;;;;;;8.77;6.07;;;17.40;40.20;;;;;;21171244;28;20211;-67
2023/04/09 17:37:33;;;;;;;7.30;5.90;;;16.70;40.80;;;;;;21170244;28;20692;-69
2023/04/09 17:47:35;;;;;;;10.13;6.67;;;16.20;41.30;;;;;;21151317;28;20209;-67
2023/04/09 17:57:40;;;;;;;7.90;6.57;;;15.80;42.00;;;;;;21168334;28;20259;-68
2023/04/09 18:07:42;;;;;;;7.57;6.33;;;15.40;43.30;;;;;;21167273;28;20219;-68
2023/04/09 18:17:44;;;;;;;8.63;6.53;;;14.90;45.00;;;;;;21165453;28;20251;-69
2023/04/09 18:27:46;;;;;;;9.23;6.63;;;14.00;46.90;;;;;;21166698;28;20631;-70
2023/04/09 18:37:47;;;;;;;9.27;7.37;;;13.60;48.00;;;;;;21165743;28;20260;-68
2023/04/09 18:47:49;;;;;;;9.87;7.10;;;13.50;48.80;;;;;;21165161;28;20266;-71
2023/04/09 18:57:51;;;;;;;10.73;8.33;;;13.00;50.20;;;;;;21164751;28;20247;-69
2023/04/09 19:08:00;;;;;;;14.13;10.30;;;12.50;52.10;;;;;;21146023;28;20867;-69
2023/04/09 19:18:02;;;;;;;14.73;9.57;;;12.00;53.20;;;;;;21163337;28;20246;-67
2023/04/09 19:28:04;;;;;;;13.27;8.97;;;11.80;53.80;;;;;;21162885;28;20206;-68
2023/04/09 19:38:06;;;;;;;17.33;10.27;;;11.70;54.00;;;;;;21161339;28;20267;-68
2023/04/09 19:48:08;;;;;;;13.10;9.30;;;11.50;54.80;;;;;;21161351;28;20299;-68
2023/04/09 19:58:10;;;;;;;13.90;9.73;;;;;;;;;;21161166;28;20290;-66
2023/04/09 20:08:12;;;;;;;16.20;10.23;;;10.80;57.50;;;;;;21160328;28;20230;-68
2023/04/09 20:18:16;;;;;;;14.30;10.40;;;10.50;58.30;;;;;;21160341;28;20342;-67
2023/04/09 20:28:18;;;;;;;15.57;10.00;;;10.50;58.90;;;;;;21160758;28;20214;-67
2023/04/09 20:38:21;;;;;;;15.50;10.10;;;10.50;59.20;;;;;;21166420;28;20282;-67
2023/04/09 20:48:22;;;;;;;17.60;10.40;;;10.30;59.60;;;;;;21174426;28;20253;-67
2023/04/09 20:58:24;;;;;;;15.57;10.77;;;10.10;60.80;;;;;;21174056;28;20348;-67
2023/04/09 21:08:27;;;;;;;15.20;10.07;;;9.80;63.00;;;;;;21172568;28;20228;-69
2023/04/09 21:18:29;;;;;;;16.07;10.70;;;9.60;63.70;;;;;;21171109;28;20237;-69
2023/04/09 21:28:31;;;;;;;15.53;10.80;;;9.60;64.30;;;;;;21170896;28;20220;-67
2023/04/09 21:38:33;;;;;;;17.10;11.40;;;9.40;64.80;;;;;;21170356;28;20243;-70
2023/04/09 21:48:35;;;;;;;17.80;11.27;;;9.30;65.80;;;;;;21169625;28;20233;-68
2023/04/09 21:58:39;;;;;;;17.67;11.87;;;9.10;67.10;;;;;;21169060;28;20326;-68
2023/04/09 22:08:41;;;;;;;21.87;13.30;;;9.00;68.10;;;;;;21167933;28;20214;-67
2023/04/09 22:18:57;;;;;;;17.53;12.07;;;8.90;69.30;;;;;;21167249;28;20256;-69
2023/04/09 22:29:01;;;;;;;18.20;11.43;;;8.80;70.10;;;;;;21166636;28;20651;-68
2023/04/09 22:39:06;;;;;;;18.07;11.80;;;8.70;70.80;;;;;;21166219;28;20281;-69
2023/04/09 22:49:07;;;;;;;21.77;12.37;;;8.60;71.60;;;;;;21165506;28;20673;-66
2023/04/09 22:59:10;;;;;;;22.83;13.37;;;8.50;72.30;;;;;;21164194;28;20284;-69
2023/04/09 23:09:11;;;;;;;21.43;12.47;;;8.40;73.30;;;;;;21164291;28;20247;-67
2023/04/09 23:19:13;;;;;;;18.07;12.13;;;8.30;74.10;;;;;;21163521;28;20228;-66
2023/04/09 23:29:15;;;;;;;16.53;11.50;;;8.20;74.80;;;;;;21163098;28;20211;-67
2023/04/09 23:39:16;;;;;;;19.43;11.13;;;8.10;75.50;;;;;;21162928;28;20233;-66
2023/04/09 23:49:19;;;;;;;17.17;11.40;;;;;;;;;;21162211;28;20264;-66
2023/04/09 23:59:21;;;;;;;21.10;12.47;;;7.80;76.50;;;;;;21161856;28;20232;-66
